Terminal Aerodrome Forecast
Issued by NWS

Home | Current Version | Previous Version | Graphics & Text | Print | Product List | Glossary On
Versions: 1 2 3 4 5 6 7 8 9 10 11 12 13 14 15 16 17 18 19 20 21 22
000
FTUS41 KCLE 191942 AAA
TAFFDY
TAF AMD
KFDY 191942Z 1920/2018 04014KT P6SM VCTS BKN015CB OVC045
      TEMPO 1921/1923 3SM -TSRA BKN025CB OVC035
     FM200000 06012KT P6SM BKN025 OVC050=

USA.gov is the U.S. government's official web portal to all federal, state and local government web resources and services.